Time;durP1;ratioP1;P1;durP2;ratioP2;P2;SDS_P1;SDS_P2;PMS_P1;PMS_P2;Temp;Humidity;BMP_temperature;BMP_pressure;BME280_temperature;BME280_humidity;BME280_pressure;Samples;Min_cycle;Max_cycle;Signal;HPM_P1;HPM_P2
2023/10/06 00:02:14;;;;;;;;;;;;;;;18.73;56.02;102399.16;5044717;28;19917;-45
2023/10/06 00:04:41;;;;;;;;;;;;;;;18.71;56.33;102391.22;5038600;28;19932;-45
2023/10/06 00:07:08;;;;;;;;;;;;;;;18.71;56.17;102398.44;5037226;28;20012;-45
2023/10/06 00:09:33;;;;;;;;;;;;;;;18.71;56.23;102402.00;5032655;28;19967;-46
2023/10/06 00:11:59;;;;;;;;;;;;;;;18.72;56.26;102402.84;5036801;28;19909;-46
2023/10/06 00:14:40;;;;;;;;;;;;;;;18.71;56.37;102396.59;5029780;28;19978;-47
2023/10/06 00:17:09;;;;;;;;;;;;;;;18.71;56.13;102393.91;5035856;28;19913;-45
2023/10/06 00:19:36;;;;;;;;;;;;;;;18.70;56.26;102384.13;5040888;28;20287;-45
2023/10/06 00:24:47;;;;;;;;;;;;;;;18.69;56.07;102371.66;5043742;28;19912;-47
2023/10/06 00:27:12;;;;;;;;;;;;;;;18.69;56.33;102371.66;5041807;28;19909;-47
2023/10/06 00:29:38;;;;;;;;;;;;;;;18.69;56.08;102368.97;5038739;28;19980;-45
2023/10/06 00:32:21;;;;;;;;;;;;;;;18.68;56.15;102356.41;5038703;28;19913;-46
2023/10/06 00:34:47;;;;;;;;;;;;;;;18.68;56.00;102353.72;5043871;28;20030;-46
2023/10/06 00:37:13;;;;;;;;;;;;;;;18.68;56.00;102359.09;5036261;28;19913;-44
2023/10/06 00:39:38;;;;;;;;;;;;;;;18.68;56.28;102352.88;5041994;28;19916;-45
2023/10/06 00:42:04;;;;;;;;;;;;;;;18.67;56.21;102359.25;5043291;28;20286;-48
2023/10/06 00:44:30;;;;;;;;;;;;;;;18.67;56.23;102351.16;5036637;28;20486;-46
2023/10/06 00:46:58;;;;;;;;;;;;;;;18.67;56.14;102343.09;5041695;28;19909;-45
2023/10/06 00:49:24;;;;;;;;;;;;;;;18.66;56.19;102338.69;5040928;28;19909;-46
2023/10/06 00:51:49;;;;;;;;;;;;;;;18.67;56.09;102335.00;5037047;28;20298;-46
2023/10/06 00:54:14;;;;;;;;;;;;;;;18.66;56.13;102331.47;5042763;28;20350;-44
2023/10/06 00:56:39;;;;;;;;;;;;;;;18.66;56.20;102344.09;5041059;28;19916;-47
2023/10/06 00:59:05;;;;;;;;;;;;;;;18.66;56.04;102346.78;5023246;28;20194;-45
2023/10/06 01:01:33;;;;;;;;;;;;;;;18.65;56.00;102347.78;5041491;28;19913;-45
2023/10/06 01:04:05;;;;;;;;;;;;;;;18.65;56.06;102353.16;5035792;28;19945;-45
2023/10/06 01:06:33;;;;;;;;;;;;;;;18.65;55.91;102361.25;5041342;28;19909;-45
2023/10/06 01:09:06;;;;;;;;;;;;;;;18.64;55.97;102356.81;5041333;28;19917;-45
2023/10/06 01:11:40;;;;;;;;;;;;;;;18.64;56.31;102352.28;5037343;28;19912;-45
2023/10/06 01:14:06;;;;;;;;;;;;;;;18.63;56.32;102347.03;5037961;28;19974;-46
2023/10/06 01:16:34;;;;;;;;;;;;;;;18.63;56.29;102341.63;5038749;28;19972;-46
2023/10/06 01:19:14;;;;;;;;;;;;;;;18.63;56.22;102338.94;5021199;28;19910;-48
2023/10/06 01:21:40;;;;;;;;;;;;;;;18.63;56.32;102338.94;5038951;28;20011;-45
2023/10/06 01:24:11;;;;;;;;;;;;;;;18.62;56.25;102321.94;5039915;28;19909;-45
2023/10/06 01:26:41;;;;;;;;;;;;;;;18.62;55.98;102323.78;5037435;28;20291;-45
2023/10/06 01:29:06;;;;;;;;;;;;;;;18.61;55.97;102328.31;5040209;28;19913;-44
2023/10/06 01:31:33;;;;;;;;;;;;;;;18.61;56.11;102322.94;5035681;28;19916;-46
2023/10/06 01:33:59;;;;;;;;;;;;;;;18.60;55.86;102323.88;5039706;28;19984;-45
2023/10/06 01:36:25;;;;;;;;;;;;;;;18.60;56.19;102310.41;5037831;28;19909;-46
2023/10/06 01:38:50;;;;;;;;;;;;;;;18.59;56.14;102311.41;5035976;28;19917;-46
2023/10/06 01:41:15;;;;;;;;;;;;;;;18.59;56.32;102303.34;5038704;28;20011;-45
2023/10/06 01:43:40;;;;;;;;;;;;;;;18.60;56.01;102312.25;5038935;28;19908;-46
2023/10/06 01:46:11;;;;;;;;;;;;;;;18.60;56.25;102309.56;5037579;28;19913;-45
2023/10/06 01:48:36;;;;;;;;;;;;;;;18.59;56.17;102311.41;5035776;28;19959;-46
2023/10/06 01:51:03;;;;;;;;;;;;;;;18.60;56.26;102306.88;5037543;28;19909;-45
2023/10/06 01:53:32;;;;;;;;;;;;;;;18.58;56.06;102304.31;5040067;28;19921;-45
2023/10/06 01:56:02;;;;;;;;;;;;;;;18.58;56.29;102303.47;5040282;28;19920;-45
2023/10/06 01:58:28;;;;;;;;;;;;;;;18.57;56.17;102301.78;5029661;28;19913;-46
2023/10/06 02:00:53;;;;;;;;;;;;;;;18.58;56.09;102311.56;5040028;28;19935;-46
2023/10/06 02:03:20;;;;;;;;;;;;;;;18.58;56.01;102311.56;5038600;28;19909;-49
2023/10/06 02:05:46;;;;;;;;;;;;;;;18.57;56.22;102313.41;5039675;28;19909;-49
2023/10/06 02:08:14;;;;;;;;;;;;;;;18.56;55.94;102308.97;5034549;28;19914;-48
2023/10/06 02:10:41;;;;;;;;;;;;;;;18.56;56.16;102311.66;5034334;28;19985;-47
2023/10/06 02:13:06;;;;;;;;;;;;;;;18.56;55.95;102319.75;5044343;28;19913;-45
2023/10/06 02:15:32;;;;;;;;;;;;;;;18.55;55.94;102323.44;5037070;28;19909;-45
2023/10/06 02:17:57;;;;;;;;;;;;;;;18.55;56.17;102326.13;5040486;28;19909;-47
2023/10/06 02:22:55;;;;;;;;;;;;;;;18.54;56.09;102319.03;5039268;28;19975;-45
2023/10/06 02:25:20;;;;;;;;;;;;;;;18.54;56.11;102307.41;5035307;28;20012;-46
2023/10/06 02:27:47;;;;;;;;;;;;;;;18.54;56.05;102291.25;5036198;28;20410;-45
2023/10/06 02:30:15;;;;;;;;;;;;;;;18.54;56.09;102293.97;5039200;28;20331;-45
2023/10/06 02:32:40;;;;;;;;;;;;;;;18.53;56.18;102284.19;5040550;28;19913;-45
2023/10/06 02:35:07;;;;;;;;;;;;;;;18.53;56.13;102289.56;5039352;28;19916;-45
2023/10/06 02:37:33;;;;;;;;;;;;;;;18.52;56.17;102290.53;5044976;28;19909;-47
2023/10/06 02:39:58;;;;;;;;;;;;;;;18.52;56.31;102287.81;5038306;28;19909;-45
2023/10/06 02:42:23;;;;;;;;;;;;;;;18.51;56.31;102284.28;5040968;28;19948;-45
2023/10/06 02:44:51;;;;;;;;;;;;;;;18.51;56.00;102276.22;5044177;28;19915;-45
2023/10/06 02:47:17;;;;;;;;;;;;;;;18.51;56.06;102270.81;5036241;28;19921;-45
2023/10/06 02:49:49;;;;;;;;;;;;;;;18.51;56.11;102269.97;5042169;28;19935;-46
2023/10/06 02:52:29;;;;;;;;;;;;;;;18.51;56.05;102286.97;5045210;28;19917;-44
2023/10/06 02:57:28;;;;;;;;;;;;;;;18.49;56.05;102283.59;5045895;28;19924;-45
2023/10/06 02:59:57;;;;;;;;;;;;;;;18.49;55.89;102270.13;5041885;28;19912;-45
2023/10/06 03:02:25;;;;;;;;;;;;;;;18.48;55.94;102271.09;5042081;28;19917;-45
2023/10/06 03:04:55;;;;;;;;;;;;;;;18.48;56.03;102277.34;5042890;28;19913;-45
2023/10/06 03:07:22;;;;;;;;;;;;;;;18.48;56.00;102271.09;5043594;28;19917;-46
2023/10/06 03:09:47;;;;;;;;;;;;;;;18.48;55.80;102268.41;5042785;28;19961;-47
2023/10/06 03:14:38;;;;;;;;;;;;;;;18.47;56.07;102272.06;5040092;28;20273;-45
2023/10/06 03:17:10;;;;;;;;;;;;;;;18.46;55.98;102271.22;5043365;28;19936;-45
2023/10/06 03:19:40;;;;;;;;;;;;;;;18.46;55.74;102263.16;5072892;28;19912;-46
2023/10/06 03:22:07;;;;;;;;;;;;;;;18.46;55.98;102259.59;5038770;28;19976;-47
2023/10/06 03:24:33;;;;;;;;;;;;;;;18.45;55.98;102257.91;5042045;28;19909;-45
2023/10/06 03:26:58;;;;;;;;;;;;;;;18.46;56.00;102251.53;5043491;28;19952;-45
2023/10/06 03:29:44;;;;;;;;;;;;;;;18.45;55.91;102257.91;5041222;28;19913;-48
2023/10/06 03:32:13;;;;;;;;;;;;;;;18.45;56.07;102257.91;5041069;28;19917;-46
2023/10/06 03:34:38;;;;;;;;;;;;;;;18.44;55.88;102248.97;5036854;28;20321;-45
2023/10/06 03:37:05;;;;;;;;;;;;;;;18.45;55.83;102257.91;5040278;28;19941;-46
2023/10/06 03:39:31;;;;;;;;;;;;;;;18.44;56.20;102253.50;5043197;28;19921;-45
2023/10/06 03:42:00;;;;;;;;;;;;;;;18.43;56.05;102249.94;5036642;28;19917;-45
2023/10/06 03:44:26;;;;;;;;;;;;;;;18.42;56.00;102248.22;5043045;28;19924;-45
2023/10/06 03:46:53;;;;;;;;;;;;;;;18.43;56.02;102257.16;5042150;28;19909;-46
2023/10/06 03:49:18;;;;;;;;;;;;;;;18.42;56.14;102245.53;5041340;28;20146;-44
2023/10/06 03:51:44;;;;;;;;;;;;;;;18.40;56.20;102244.84;5042990;28;19972;-46
2023/10/06 03:54:09;;;;;;;;;;;;;;;18.41;55.98;102246.53;5039937;28;19928;-45
2023/10/06 03:56:34;;;;;;;;;;;;;;;18.41;55.82;102240.31;5041461;28;20186;-45
2023/10/06 03:59:00;;;;;;;;;;;;;;;18.40;55.88;102250.22;5040722;28;19913;-45
2023/10/06 04:01:31;;;;;;;;;;;;;;;18.40;56.05;102244.84;5042596;28;19920;-45
2023/10/06 04:03:59;;;;;;;;;;;;;;;18.40;56.07;102244.84;5040814;28;19975;-44
2023/10/06 04:06:25;;;;;;;;;;;;;;;18.41;55.85;102249.22;5038057;28;19919;-45
2023/10/06 04:08:52;;;;;;;;;;;;;;;18.39;56.03;102237.75;5036894;28;20375;-44
2023/10/06 04:11:17;;;;;;;;;;;;;;;18.40;56.07;102233.22;5040763;28;19910;-45
2023/10/06 04:13:43;;;;;;;;;;;;;;;18.38;55.86;102241.41;5037637;28;19913;-45
2023/10/06 04:16:08;;;;;;;;;;;;;;;18.39;56.05;102235.06;5042176;28;19913;-45
2023/10/06 04:18:33;;;;;;;;;;;;;;;18.38;56.00;102230.63;5036818;28;19919;-45
2023/10/06 04:20:59;;;;;;;;;;;;;;;18.38;55.86;102229.78;5040351;28;19908;-46
2023/10/06 04:23:24;;;;;;;;;;;;;;;18.37;56.01;102220.84;5030265;28;19980;-44
2023/10/06 04:25:54;;;;;;;;;;;;;;;18.37;56.02;102222.69;5035405;28;19909;-46
2023/10/06 04:28:20;;;;;;;;;;;;;;;18.36;56.04;102224.53;5035372;28;19916;-46
2023/10/06 04:30:45;;;;;;;;;;;;;;;18.36;55.91;102229.09;5039956;28;19917;-47
2023/10/06 04:33:11;;;;;;;;;;;;;;;18.36;55.92;102227.25;5035910;28;19913;-45
2023/10/06 04:35:40;;;;;;;;;;;;;;;18.35;56.16;102228.22;5036368;28;19962;-45
2023/10/06 04:38:10;;;;;;;;;;;;;;;18.35;56.23;102227.34;5039210;28;20414;-45
2023/10/06 04:40:37;;;;;;;;;;;;;;;18.35;55.86;102225.53;5035921;28;19949;-46
2023/10/06 04:43:03;;;;;;;;;;;;;;;18.35;55.86;102224.66;5036392;28;19913;-45
2023/10/06 04:45:31;;;;;;;;;;;;;;;18.35;56.04;102230.94;5035457;28;19917;-46
2023/10/06 04:47:56;;;;;;;;;;;;;;;18.34;56.03;102231.03;5040414;28;19936;-47
2023/10/06 04:50:22;;;;;;;;;;;;;;;18.34;56.05;102234.56;5035913;28;19943;-45
2023/10/06 04:52:47;;;;;;;;;;;;;;;18.34;55.93;102236.41;5034678;28;20186;-45
2023/10/06 04:55:13;;;;;;;;;;;;;;;18.33;56.12;102227.50;5041641;28;19909;-46
2023/10/06 04:57:40;;;;;;;;;;;;;;;18.33;56.11;102219.41;5035392;28;19913;-47
2023/10/06 05:00:13;;;;;;;;;;;;;;;18.34;56.02;102220.25;5039436;28;19989;-46
2023/10/06 05:02:38;;;;;;;;;;;;;;;18.33;56.01;102223.94;5043090;28;20005;-45
2023/10/06 05:05:05;;;;;;;;;;;;;;;18.32;56.04;102216.88;5034796;28;19909;-45
2023/10/06 05:07:31;;;;;;;;;;;;;;;18.33;55.99;102205.09;5038784;28;19932;-46
2023/10/06 05:09:56;;;;;;;;;;;;;;;18.32;55.94;102203.41;5041078;28;19918;-45
2023/10/06 05:12:23;;;;;;;;;;;;;;;18.32;55.84;102196.19;5039651;28;20433;-46
2023/10/06 05:14:49;;;;;;;;;;;;;;;18.33;56.18;102197.03;5041501;28;19913;-45
2023/10/06 05:17:16;;;;;;;;;;;;;;;18.32;55.88;102203.41;5040145;28;19909;-50
2023/10/06 05:19:42;;;;;;;;;;;;;;;18.31;55.86;102196.28;5036959;28;19920;-48
2023/10/06 05:22:07;;;;;;;;;;;;;;;18.31;56.06;102196.28;5073775;28;19913;-44
2023/10/06 05:24:32;;;;;;;;;;;;;;;18.30;56.06;102195.44;5039306;28;19916;-50
2023/10/06 05:26:57;;;;;;;;;;;;;;;18.30;55.99;102195.44;5038542;28;19919;-47
2023/10/06 05:29:25;;;;;;;;;;;;;;;18.30;55.82;102194.59;5041836;28;19980;-49
2023/10/06 05:31:50;;;;;;;;;;;;;;;18.30;55.83;102189.22;5040395;28;19939;-48
2023/10/06 05:34:17;;;;;;;;;;;;;;;18.30;55.93;102191.91;5038667;28;19977;-47
2023/10/06 05:36:42;;;;;;;;;;;;;;;18.29;55.90;102191.06;5039460;28;19931;-48
2023/10/06 05:39:11;;;;;;;;;;;;;;;18.29;56.06;102192.91;5036908;28;19917;-49
2023/10/06 05:41:36;;;;;;;;;;;;;;;18.29;56.01;102195.59;5038172;28;19992;-46
2023/10/06 05:44:02;;;;;;;;;;;;;;;18.28;56.07;102202.81;5038601;28;19928;-46
2023/10/06 05:46:27;;;;;;;;;;;;;;;18.28;56.01;102196.59;5036274;28;19909;-44
2023/10/06 05:48:53;;;;;;;;;;;;;;;18.28;55.93;102194.75;5038960;28;19918;-45
2023/10/06 05:51:21;;;;;;;;;;;;;;;18.27;56.07;102190.34;5036922;28;19936;-50
2023/10/06 05:53:48;;;;;;;;;;;;;;;18.27;56.12;102187.66;5035811;28;20379;-46
2023/10/06 05:56:15;;;;;;;;;;;;;;;18.27;55.98;102193.03;5039783;28;19908;-44
2023/10/06 05:58:43;;;;;;;;;;;;;;;18.29;56.02;102187.50;5040417;28;19917;-45
2023/10/06 06:01:13;;;;;;;;;;;;;;;18.27;55.83;102193.03;5038295;28;19920;-46
2023/10/06 06:03:47;;;;;;;;;;;;;;;18.26;55.92;102185.94;5038273;28;19913;-45
2023/10/06 06:06:14;;;;;;;;;;;;;;;18.28;56.07;102177.75;5036405;28;19909;-47
2023/10/06 06:08:43;;;;;;;;;;;;;;;18.26;56.00;102185.94;5041313;28;19925;-45
2023/10/06 06:11:08;;;;;;;;;;;;;;;18.26;56.03;102182.38;5037496;28;19932;-46
2023/10/06 06:13:36;;;;;;;;;;;;;;;18.27;55.82;102194.88;5041961;28;20425;-46
2023/10/06 06:16:02;;;;;;;;;;;;;;;18.28;56.01;102204.66;5040050;28;19973;-45
2023/10/06 06:18:27;;;;;;;;;;;;;;;18.26;56.12;102199.38;5032381;28;19914;-46
2023/10/06 06:20:53;;;;;;;;;;;;;;;18.26;55.88;102202.06;5036605;28;19916;-48
2023/10/06 06:23:20;;;;;;;;;;;;;;;18.26;56.10;102202.06;5035584;28;19913;-44
2023/10/06 06:25:45;;;;;;;;;;;;;;;18.27;56.14;102205.66;5036428;28;19936;-44
2023/10/06 06:28:12;;;;;;;;;;;;;;;18.26;56.05;102202.06;5037503;28;19917;-47
2023/10/06 06:30:39;;;;;;;;;;;;;;;18.25;55.89;102195.00;5036570;28;19921;-49
2023/10/06 06:33:04;;;;;;;;;;;;;;;18.26;55.98;102190.47;5037303;28;19956;-46
2023/10/06 06:35:30;;;;;;;;;;;;;;;18.26;55.82;102195.84;5034215;28;19967;-48
2023/10/06 06:38:01;;;;;;;;;;;;;;;18.27;56.01;102203.81;5032290;28;19913;-49
2023/10/06 06:40:30;;;;;;;;;;;;;;;18.27;55.95;102202.97;5034343;28;19916;-48
2023/10/06 06:42:58;;;;;;;;;;;;;;;18.27;55.74;102198.44;5038908;28;19905;-48
2023/10/06 06:45:28;;;;;;;;;;;;;;;18.28;55.98;102199.28;5035934;28;19909;-46
2023/10/06 06:47:53;;;;;;;;;;;;;;;18.27;55.92;102198.44;5035767;28;19909;-45
2023/10/06 06:50:19;;;;;;;;;;;;;;;18.27;55.75;102200.28;5037550;28;19909;-49
2023/10/06 06:52:44;;;;;;;;;;;;;;;18.27;55.71;102186.81;5037608;28;19913;-47
2023/10/06 06:55:13;;;;;;;;;;;;;;;18.27;55.94;102186.81;5032467;28;19913;-45
2023/10/06 06:57:43;;;;;;;;;;;;;;;18.27;55.77;102197.56;5043143;28;20291;-45
2023/10/06 07:00:15;;;;;;;;;;;;;;;18.27;55.97;102203.81;5045999;28;19916;-47
2023/10/06 07:02:40;;;;;;;;;;;;;;;18.28;55.78;102196.59;5037909;28;19912;-45
2023/10/06 07:05:06;;;;;;;;;;;;;;;18.27;55.67;102200.28;5043433;28;20391;-45
2023/10/06 07:07:32;;;;;;;;;;;;;;;18.28;55.93;102196.59;5040202;28;19917;-45
2023/10/06 07:09:59;;;;;;;;;;;;;;;18.28;55.96;102207.34;5039464;28;19975;-49
2023/10/06 07:12:24;;;;;;;;;;;;;;;18.28;55.75;102210.03;5043872;28;19913;-46
2023/10/06 07:14:49;;;;;;;;;;;;;;;18.27;55.88;102211.88;5040973;28;19916;-45
2023/10/06 07:17:14;;;;;;;;;;;;;;;18.28;55.83;102218.97;5042129;28;19909;-45
2023/10/06 07:19:39;;;;;;;;;;;;;;;18.28;55.99;102210.88;5044874;28;20456;-46
2023/10/06 07:22:06;;;;;;;;;;;;;;;18.28;55.93;102218.13;5041028;28;19925;-48
2023/10/06 07:24:31;;;;;;;;;;;;;;;18.28;55.75;102216.28;5040445;28;19955;-47
2023/10/06 07:26:56;;;;;;;;;;;;;;;18.29;56.01;102214.44;5041455;28;19909;-46
2023/10/06 07:29:21;;;;;;;;;;;;;;;18.28;55.91;102207.34;5037242;28;19915;-46
2023/10/06 07:31:49;;;;;;;;;;;;;;;18.28;55.90;102197.44;5043202;28;19952;-46
2023/10/06 07:34:14;;;;;;;;;;;;;;;18.28;55.96;102210.88;5043630;28;19913;-47
2023/10/06 07:36:40;;;;;;;;;;;;;;;18.28;55.74;102205.50;5039020;28;19916;-47
2023/10/06 07:39:08;;;;;;;;;;;;;;;18.29;56.08;102215.28;5044750;28;20391;-45
2023/10/06 07:41:33;;;;;;;;;;;;;;;18.29;56.01;102198.28;5071478;28;19915;-46
2023/10/06 07:43:59;;;;;;;;;;;;;;;18.29;56.01;102195.59;5039377;28;19909;-47
2023/10/06 07:46:24;;;;;;;;;;;;;;;18.29;55.86;102209.91;5042495;28;20462;-46
2023/10/06 07:48:50;;;;;;;;;;;;;;;18.29;55.77;102207.22;5043646;28;19932;-44
2023/10/06 07:51:19;;;;;;;;;;;;;;;18.30;55.89;102213.44;5042908;28;20363;-46
2023/10/06 07:53:44;;;;;;;;;;;;;;;18.30;55.90;102216.13;5042135;28;20409;-49
2023/10/06 07:56:11;;;;;;;;;;;;;;;18.31;55.95;102224.09;5038998;28;20352;-46
2023/10/06 07:58:41;;;;;;;;;;;;;;;18.31;55.82;102224.09;5044165;28;19909;-45
2023/10/06 08:01:07;;;;;;;;;;;;;;;18.32;56.03;102223.09;5042582;28;19994;-45
2023/10/06 08:03:33;;;;;;;;;;;;;;;18.33;55.81;102232.03;5040214;28;19909;-45
2023/10/06 08:06:00;;;;;;;;;;;;;;;18.33;55.92;102224.81;5041439;28;20023;-48
2023/10/06 08:08:25;;;;;;;;;;;;;;;18.34;55.98;102231.03;5041715;28;19912;-45
2023/10/06 08:10:52;;;;;;;;;;;;;;;18.34;55.92;102229.19;5039066;28;19913;-48
2023/10/06 08:13:18;;;;;;;;;;;;;;;18.34;55.79;102213.03;5041201;28;20367;-44
2023/10/06 08:15:44;;;;;;;;;;;;;;;18.35;55.86;102208.50;5044015;28;19922;-45
2023/10/06 08:18:12;;;;;;;;;;;;;;;18.35;55.95;102214.78;5040453;28;19909;-48
2023/10/06 08:20:40;;;;;;;;;;;;;;;18.36;55.88;102215.63;5040600;28;19909;-45
2023/10/06 08:23:06;;;;;;;;;;;;;;;18.36;55.96;102219.16;5036321;28;19976;-46
2023/10/06 08:25:32;;;;;;;;;;;;;;;18.37;55.89;102222.69;5039426;28;19980;-46
2023/10/06 08:27:57;;;;;;;;;;;;;;;18.37;55.68;102226.25;5038312;28;20360;-46
2023/10/06 08:30:22;;;;;;;;;;;;;;;18.37;55.88;102217.31;5039769;28;19913;-47
2023/10/06 08:32:48;;;;;;;;;;;;;;;18.38;55.80;102210.94;5039832;28;19917;-46
2023/10/06 08:35:14;;;;;;;;;;;;;;;18.40;56.02;102215.22;5038977;28;20604;-47
2023/10/06 08:37:40;;;;;;;;;;;;;;;18.40;55.67;102209.84;5032703;28;19909;-45
2023/10/06 08:40:07;;;;;;;;;;;;;;;18.40;55.95;102215.22;5036394;28;19913;-47
2023/10/06 08:42:32;;;;;;;;;;;;;;;18.41;55.99;102216.06;5036062;28;20302;-46
2023/10/06 08:44:57;;;;;;;;;;;;;;;18.42;55.77;102217.75;5036519;28;20369;-45
2023/10/06 08:47:23;;;;;;;;;;;;;;;18.42;55.85;102217.75;5038109;28;20362;-46
2023/10/06 08:49:48;;;;;;;;;;;;;;;18.44;55.88;102231.97;5038906;28;20445;-48
2023/10/06 08:52:13;;;;;;;;;;;;;;;18.44;56.09;102222.03;5034150;28;19917;-45
2023/10/06 08:54:39;;;;;;;;;;;;;;;18.45;56.01;102226.44;5033998;28;19909;-48
2023/10/06 08:57:04;;;;;;;;;;;;;;;18.45;56.02;102222.88;5064832;28;19920;-46
2023/10/06 08:59:31;;;;;;;;;;;;;;;17.67;55.99;102101.28;5037747;28;20426;-48
2023/10/06 09:01:58;;;;;;;;;;;;;;;18.46;55.77;102233.50;5037389;28;19916;-47
2023/10/06 09:04:23;;;;;;;;;;;;;;;18.48;55.97;102225.31;5036373;28;19909;-47
2023/10/06 09:07:08;;;;;;;;;;;;;;;18.48;56.00;102211.84;5037448;28;19909;-46
2023/10/06 09:09:33;;;;;;;;;;;;;;;18.50;55.85;102220.66;5040691;28;19943;-46
2023/10/06 09:11:58;;;;;;;;;;;;;;;18.50;55.90;102223.34;5037382;28;19916;-46
2023/10/06 09:14:25;;;;;;;;;;;;;;;18.53;55.82;102203.38;5040777;28;19935;-45
2023/10/06 09:16:50;;;;;;;;;;;;;;;18.53;56.09;102212.31;5043114;28;20290;-44
2023/10/06 09:19:15;;;;;;;;;;;;;;;18.54;55.83;102221.22;5035521;28;20391;-45
2023/10/06 09:22:10;;;;;;;;;;;;;;;18.55;55.92;102228.31;5042724;28;19909;-45
2023/10/06 09:24:35;;;;;;;;;;;;;;;18.55;55.61;102226.47;5041372;28;19912;-45
2023/10/06 09:27:05;;;;;;;;;;;;;;;18.56;55.88;102224.63;5037633;28;19916;-44
2023/10/06 09:29:32;;;;;;;;;;;;;;;18.57;55.68;102210.19;5040271;28;20344;-45
2023/10/06 09:31:58;;;;;;;;;;;;;;;18.56;55.82;102216.53;5039205;28;19931;-48
2023/10/06 09:34:23;;;;;;;;;;;;;;;18.57;55.89;102220.97;5037119;28;20339;-47
2023/10/06 09:36:50;;;;;;;;;;;;;;;18.58;55.68;102228.06;5041731;28;19940;-46
2023/10/06 09:39:25;;;;;;;;;;;;;;;18.59;55.68;102221.69;5038434;28;20376;-45
2023/10/06 09:41:50;;;;;;;;;;;;;;;18.59;55.87;102214.44;5042746;28;19920;-46
2023/10/06 09:44:17;;;;;;;;;;;;;;;18.59;55.74;102209.06;5039002;28;19909;-46
2023/10/06 09:46:43;;;;;;;;;;;;;;;18.59;55.89;102210.91;5067234;28;19909;-46
2023/10/06 09:49:09;;;;;;;;;;;;;;;18.59;55.85;102200.97;5040182;28;19924;-46
2023/10/06 09:51:37;;;;;;;;;;;;;;;18.60;55.94;102204.53;5040053;28;19909;-45
2023/10/06 09:54:04;;;;;;;;;;;;;;;18.60;55.67;102202.69;5036832;28;19917;-44
2023/10/06 09:56:29;;;;;;;;;;;;;;;18.60;55.78;102210.75;5036922;28;19945;-45
2023/10/06 09:58:55;;;;;;;;;;;;;;;18.60;56.03;102193.75;5069800;28;19913;-48
2023/10/06 10:01:24;;;;;;;;;;;;;;;18.61;55.97;102203.56;5037325;28;20422;-45
2023/10/06 10:03:50;;;;;;;;;;;;;;;18.61;55.84;102203.56;5042301;28;19917;-44
2023/10/06 10:06:19;;;;;;;;;;;;;;;18.62;55.89;102199.88;5038539;28;20012;-47
2023/10/06 10:08:44;;;;;;;;;;;;;;;18.61;55.79;102190.94;5040954;28;20360;-44
2023/10/06 10:11:14;;;;;;;;;;;;;;;18.62;56.15;102189.09;5070593;28;19944;-45
2023/10/06 10:13:40;;;;;;;;;;;;;;;18.62;56.12;102181.00;5034862;28;19917;-45
2023/10/06 10:16:09;;;;;;;;;;;;;;;18.62;56.23;102175.63;5038559;28;20260;-44
2023/10/06 10:18:38;;;;;;;;;;;;;;;18.62;56.43;102181.00;5037869;28;19968;-45
2023/10/06 10:21:04;;;;;;;;;;;;;;;18.62;56.15;102172.94;5039059;28;19999;-47
2023/10/06 10:23:29;;;;;;;;;;;;;;;18.62;55.95;102179.16;5072565;28;19924;-45
2023/10/06 10:26:03;;;;;;;;;;;;;;;18.62;56.09;102168.38;5037235;28;19920;-47
2023/10/06 10:28:28;;;;;;;;;;;;;;;18.63;56.23;102167.41;5038381;28;19959;-45
2023/10/06 10:30:57;;;;;;;;;;;;;;;18.62;56.44;102171.09;5039504;28;19910;-44
2023/10/06 10:33:24;;;;;;;;;;;;;;;18.63;56.37;102170.09;5039890;28;19913;-46
2023/10/06 10:36:07;;;;;;;;;;;;;;;18.64;56.41;102168.25;5041615;28;19913;-46
2023/10/06 10:38:33;;;;;;;;;;;;;;;18.63;56.72;102170.09;5041605;28;19919;-47
2023/10/06 10:40:58;;;;;;;;;;;;;;;18.64;56.34;102170.94;5040959;28;19917;-47
2023/10/06 10:43:23;;;;;;;;;;;;;;;18.64;56.49;102165.56;5040600;28;19909;-45
2023/10/06 10:45:48;;;;;;;;;;;;;;;18.64;56.75;102161.00;5040588;28;20006;-46
2023/10/06 10:48:15;;;;;;;;;;;;;;;18.66;56.71;102168.97;5043153;28;19952;-46
2023/10/06 10:50:56;;;;;;;;;;;;;;;18.65;56.54;102165.44;5042406;28;19909;-45
2023/10/06 10:53:21;;;;;;;;;;;;;;;18.66;56.60;102164.44;5044780;28;19955;-45
2023/10/06 10:55:47;;;;;;;;;;;;;;;18.66;56.53;102159.06;5043559;28;19920;-47
2023/10/06 10:58:32;;;;;;;;;;;;;;;18.67;56.79;102167.97;5038244;28;19913;-45
2023/10/06 11:01:17;;;;;;;;;;;;;;;18.66;56.94;102159.06;5030647;28;19933;-46
2023/10/06 11:03:42;;;;;;;;;;;;;;;18.66;57.01;102150.97;5036859;28;19913;-45
2023/10/06 11:06:08;;;;;;;;;;;;;;;18.67;56.84;102163.44;5042403;28;19913;-46
2023/10/06 11:08:39;;;;;;;;;;;;;;;18.68;56.65;102165.13;5070637;28;19912;-50
2023/10/06 11:11:04;;;;;;;;;;;;;;;18.68;56.90;102165.13;5036666;28;19917;-47
2023/10/06 11:13:31;;;;;;;;;;;;;;;18.69;56.79;102165.97;5031178;28;20295;-47
2023/10/06 11:16:03;;;;;;;;;;;;;;;18.69;56.76;102164.22;5040826;28;19908;-48
2023/10/06 11:18:31;;;;;;;;;;;;;;;18.69;57.06;102153.44;5038755;28;20074;-48
2023/10/06 11:20:57;;;;;;;;;;;;;;;18.70;57.11;102156.97;5077184;28;19920;-46
2023/10/06 11:23:23;;;;;;;;;;;;;;;18.71;56.84;102164.06;5040002;28;19913;-48
2023/10/06 11:25:48;;;;;;;;;;;;;;;18.71;57.06;102178.38;5039186;28;20999;-47
2023/10/06 11:28:14;;;;;;;;;;;;;;;18.72;57.02;102166.59;5044476;28;19963;-48
2023/10/06 11:30:40;;;;;;;;;;;;;;;18.72;57.02;102161.22;5040618;28;19935;-46
2023/10/06 11:33:06;;;;;;;;;;;;;;;18.73;57.07;102167.44;5040816;28;19999;-46
2023/10/06 11:35:33;;;;;;;;;;;;;;;18.73;57.22;102171.03;5042053;28;19909;-48
2023/10/06 11:37:59;;;;;;;;;;;;;;;18.75;57.12;102156.56;5034816;28;19908;-47
2023/10/06 11:40:24;;;;;;;;;;;;;;;18.76;57.05;102158.25;5044673;28;19931;-47
2023/10/06 11:42:50;;;;;;;;;;;;;;;18.76;57.21;102150.16;5041158;28;19909;-45
2023/10/06 11:45:25;;;;;;;;;;;;;;;18.76;57.20;102148.31;5038600;28;19920;-45
2023/10/06 11:47:51;;;;;;;;;;;;;;;18.78;57.07;102146.38;5043131;28;19909;-45
2023/10/06 11:50:20;;;;;;;;;;;;;;;18.77;57.05;102147.31;5037872;28;19916;-45
2023/10/06 11:52:45;;;;;;;;;;;;;;;18.77;57.09;102146.47;5041961;28;19917;-46
2023/10/06 11:55:14;;;;;;;;;;;;;;;18.79;57.30;102144.50;5074706;28;19916;-47
2023/10/06 11:57:46;;;;;;;;;;;;;;;18.78;57.50;102140.97;5037913;28;19913;-46
2023/10/06 12:00:12;;;;;;;;;;;;;;;18.78;57.14;102138.28;5043430;28;19909;-46
2023/10/06 12:02:45;;;;;;;;;;;;;;;18.78;57.34;102127.50;5043648;28;20121;-45
2023/10/06 12:05:10;;;;;;;;;;;;;;;18.79;57.25;102139.13;5040526;28;19905;-45
2023/10/06 12:07:37;;;;;;;;;;;;;;;18.79;57.23;102139.97;5043741;28;19916;-46
2023/10/06 12:10:03;;;;;;;;;;;;;;;18.79;57.12;102120.28;5036803;28;19917;-45
2023/10/06 12:12:29;;;;;;;;;;;;;;;18.79;57.18;102125.66;5038808;28;19913;-44
2023/10/06 12:14:56;;;;;;;;;;;;;;;18.80;57.23;102124.66;5042710;28;19909;-45
2023/10/06 12:17:22;;;;;;;;;;;;;;;18.80;57.35;102125.50;5039026;28;19909;-45
2023/10/06 12:19:48;;;;;;;;;;;;;;;18.78;57.21;102114.03;5040650;28;19913;-45
2023/10/06 12:22:14;;;;;;;;;;;;;;;18.80;57.37;102109.34;5040383;28;19919;-45
2023/10/06 12:24:40;;;;;;;;;;;;;;;18.80;57.39;102097.72;5038179;28;19924;-50
2023/10/06 12:27:05;;;;;;;;;;;;;;;18.81;57.24;102107.50;5039457;28;19913;-47
2023/10/06 12:29:31;;;;;;;;;;;;;;;18.81;57.29;102102.94;5039705;28;19912;-45
2023/10/06 12:31:57;;;;;;;;;;;;;;;18.82;57.47;102098.41;5038502;28;19932;-46
2023/10/06 12:34:22;;;;;;;;;;;;;;;18.82;57.43;102098.41;5037853;28;19917;-45
2023/10/06 12:36:48;;;;;;;;;;;;;;;18.83;57.40;102102.84;5039573;28;19908;-45
2023/10/06 12:39:17;;;;;;;;;;;;;;;18.83;57.35;102092.91;5040550;28;19916;-49
2023/10/06 12:41:46;;;;;;;;;;;;;;;18.82;57.34;102093.91;5037174;28;19913;-46
2023/10/06 12:44:11;;;;;;;;;;;;;;;18.83;57.47;102097.44;5033580;28;19968;-45
2023/10/06 12:46:37;;;;;;;;;;;;;;;18.84;57.29;102091.06;5043461;28;20313;-50